Time;durP1;ratioP1;P1;durP2;ratioP2;P2;SDS_P1;SDS_P2;PMS_P1;PMS_P2;Temp;Humidity;BMP_temperature;BMP_pressure;BME280_temperature;BME280_humidity;BME280_pressure;Samples;Min_cycle;Max_cycle;Signal;HPM_P1;HPM_P2
2024/04/10 00:04:08;;;;;;;18.45;3.83;;;10.90;99.90;;;;;;11311631;26;20029;-55
2024/04/10 00:09:17;;;;;;;15.07;3.08;;;10.90;99.90;;;;;;11310844;26;20158;-54
2024/04/10 00:14:23;;;;;;;22.77;3.75;;;11.10;99.90;;;;;;11314057;26;20025;-56
2024/04/10 00:19:33;;;;;;;11.05;2.97;;;10.70;99.90;;;;;;11317162;25;23021;-55
2024/04/10 00:24:38;;;;;;;10.05;2.53;;;10.60;99.90;;;;;;11327714;26;20006;-58
2024/04/10 00:29:42;;;;;;;17.85;3.63;;;10.40;99.90;;;;;;11324075;26;20021;-54
2024/04/10 00:34:49;;;;;;;18.98;2.90;;;10.50;99.90;;;;;;11320805;26;20018;-57
2024/04/10 00:40:00;;;;;;;21.05;3.58;;;10.40;99.90;;;;;;11318877;26;20040;-54
2024/04/10 00:45:07;;;;;;;15.52;3.10;;;10.50;99.90;;;;;;11325755;26;20149;-55
2024/04/10 00:50:22;;;;;;;7.90;1.88;;;10.50;99.90;;;;;;11322492;26;20126;-57
2024/04/10 00:55:28;;;;;;;12.68;2.70;;;10.60;99.90;;;;;;11312018;26;20164;-57
2024/04/10 01:00:32;;;;;;;14.98;2.15;;;10.80;99.90;;;;;;11316929;26;20751;-54
2024/04/10 01:05:42;;;;;;;6.32;1.92;;;10.60;99.90;;;;;;11314205;26;20048;-54
2024/04/10 01:10:48;;;;;;;15.48;2.75;;;11.10;99.90;;;;;;11317177;26;20016;-54
2024/04/10 01:15:53;;;;;;;22.50;4.03;;;10.70;99.90;;;;;;11328322;26;20455;-54
2024/04/10 01:21:07;;;;;;;12.77;2.13;;;10.70;99.90;;;;;;11325365;26;20013;-54
2024/04/10 01:26:14;;;;;;;11.05;2.97;;;10.60;99.90;;;;;;11320062;26;20006;-55
2024/04/10 01:31:27;;;;;;;14.00;2.30;;;10.40;99.90;;;;;;11323605;26;20010;-54
2024/04/10 01:36:33;;;;;;;26.13;3.65;;;10.80;99.90;;;;;;11333711;26;20018;-51
2024/04/10 01:41:43;;;;;;;21.77;3.08;;;10.30;99.90;;;;;;11337166;26;20533;-52
2024/04/10 01:46:49;;;;;;;16.25;3.55;;;10.40;99.90;;;;;;11332392;26;20124;-55
2024/04/10 01:51:53;;;;;;;11.52;2.30;;;10.70;99.90;;;;;;11324594;26;20006;-57
2024/04/10 01:57:09;;;;;;;11.57;1.85;;;10.70;99.90;;;;;;11332620;26;20002;-58
2024/04/10 02:02:13;;;;;;;5.05;1.52;;;10.60;99.90;;;;;;11332292;26;20016;-56
2024/04/10 02:07:18;;;;;;;28.40;3.88;;;10.50;99.90;;;;;;11331153;26;20022;-57
2024/04/10 02:12:28;;;;;;;9.52;2.20;;;10.60;99.90;;;;;;11319806;25;20361;-56
2024/04/10 02:17:38;;;;;;;6.18;1.58;;;10.40;99.90;;;;;;11313232;26;20021;-57
2024/04/10 02:22:44;;;;;;;20.02;3.20;;;10.80;99.90;;;;;;11312230;26;20022;-56
2024/04/10 02:27:54;;;;;;;13.70;2.70;;;10.30;99.90;;;;;;11312569;26;20619;-57
2024/04/10 02:32:58;;;;;;;22.80;5.00;;;10.40;99.90;;;;;;11321175;26;20140;-54
2024/04/10 02:38:03;;;;;;;10.68;1.77;;;10.10;99.90;;;;;;11316606;26;20547;-56
2024/04/10 02:43:10;;;;;;;15.98;2.67;;;10.80;99.90;;;;;;11320293;26;20576;-57
2024/04/10 02:48:16;;;;;;;15.32;2.05;;;10.40;99.90;;;;;;11316895;26;20009;-55
2024/04/10 02:53:22;;;;;;;19.10;2.05;;;11.00;99.90;;;;;;11323371;26;20026;-56
2024/04/10 02:58:32;;;;;;;11.15;1.65;;;11.00;99.90;;;;;;11323472;26;20059;-55
2024/04/10 03:03:37;;;;;;;22.55;3.15;;;11.00;99.90;;;;;;11334373;26;20021;-56
2024/04/10 03:08:41;;;;;;;12.32;1.92;;;10.40;99.90;;;;;;11323203;26;20006;-53
2024/04/10 03:13:49;;;;;;;8.30;1.98;;;10.40;99.90;;;;;;11325297;26;20024;-54
2024/04/10 03:19:01;;;;;;;14.90;1.88;;;10.80;99.90;;;;;;11325254;26;20086;-53
2024/04/10 03:24:08;;;;;;;16.02;2.55;;;10.70;99.90;;;;;;11327176;26;20006;-54
2024/04/10 03:29:15;;;;;;;16.90;2.25;;;10.60;99.90;;;;;;11318781;26;20585;-53
2024/04/10 03:34:19;;;;;;;4.90;2.13;;;10.30;99.90;;;;;;11318451;26;20017;-54
2024/04/10 03:39:35;;;;;;;17.83;2.80;;;10.60;99.90;;;;;;11306726;25;20126;-55
2024/04/10 03:44:44;;;;;;;12.68;2.35;;;10.60;99.90;;;;;;11317273;26;20853;-55
2024/04/10 03:49:51;;;;;;;10.80;1.65;;;10.20;99.90;;;;;;11310239;26;20014;-54
2024/04/10 03:54:55;;;;;;;12.63;2.13;;;10.00;99.90;;;;;;11308127;26;20628;-52
2024/04/10 04:00:08;;;;;;;23.52;3.22;;;10.20;99.90;;;;;;11317253;26;20010;-56
2024/04/10 04:05:15;;;;;;;14.13;2.47;;;10.00;99.90;;;;;;11314291;26;20465;-59
2024/04/10 04:10:24;;;;;;;12.30;2.60;;;10.50;99.90;;;;;;11314247;26;20005;-58
2024/04/10 04:15:31;;;;;;;14.45;4.00;;;10.50;99.90;;;;;;11320194;26;20010;-58
2024/04/10 04:20:35;;;;;;;14.95;3.55;;;10.60;99.90;;;;;;11319140;26;20009;-53
2024/04/10 04:25:42;;;;;;;17.17;2.22;;;10.50;99.90;;;;;;11316531;25;20006;-55
2024/04/10 04:30:52;;;;;;;13.50;2.17;;;10.40;99.90;;;;;;11319200;26;20022;-52
2024/04/10 04:35:58;;;;;;;7.40;1.23;;;9.80;99.90;;;;;;11315628;26;20009;-57
2024/04/10 04:41:04;;;;;;;7.28;1.67;;;10.20;99.90;;;;;;11320684;26;20149;-56
2024/04/10 04:46:16;;;;;;;14.45;2.28;;;10.70;99.90;;;;;;11318949;26;20832;-56
2024/04/10 04:51:23;;;;;;;11.90;3.13;;;10.20;99.90;;;;;;11319023;26;20122;-56
2024/04/10 04:56:31;;;;;;;14.80;2.40;;;9.70;99.90;;;;;;11316014;26;20012;-57
2024/04/10 05:01:41;;;;;;;15.43;2.63;;;9.80;99.90;;;;;;11307214;26;20033;-58
2024/04/10 05:06:45;;;;;;;14.32;1.60;;;9.60;99.90;;;;;;11311734;26;20006;-56
2024/04/10 05:11:49;;;;;;;10.35;2.80;;;10.40;99.90;;;;;;11313807;26;23269;-55
2024/04/10 05:17:02;;;;;;;14.80;1.50;;;9.90;99.90;;;;;;11312155;26;20018;-57
2024/04/10 05:22:07;;;;;;;16.75;1.80;;;10.60;99.90;;;;;;11316625;26;20733;-57
2024/04/10 05:27:13;;;;;;;12.20;2.40;;;10.60;99.90;;;;;;11314543;26;20839;-57
2024/04/10 05:32:21;;;;;;;14.48;2.40;;;10.20;99.90;;;;;;11313849;26;20034;-54
2024/04/10 05:37:25;;;;;;;27.23;2.13;;;9.70;99.90;;;;;;11308781;26;20916;-53
2024/04/10 05:42:30;;;;;;;10.70;1.48;;;9.80;99.90;;;;;;11313542;26;20473;-54
2024/04/10 05:47:36;;;;;;;14.63;2.30;;;10.50;99.90;;;;;;11311163;26;20014;-55
2024/04/10 05:52:50;;;;;;;19.60;1.70;;;10.00;99.90;;;;;;11319083;26;20040;-55
2024/04/10 05:57:54;;;;;;;20.98;1.95;;;10.00;99.90;;;;;;11313946;26;20003;-55
2024/04/10 06:03:03;;;;;;;16.13;2.25;;;10.10;99.90;;;;;;11322622;26;20100;-56
2024/04/10 06:08:09;;;;;;;11.93;1.95;;;11.10;99.90;;;;;;11316580;26;20066;-52
2024/04/10 06:13:16;;;;;;;10.05;1.42;;;10.70;99.90;;;;;;11314759;26;20069;-53
2024/04/10 06:18:28;;;;;;;15.63;1.63;;;10.60;99.90;;;;;;11308006;26;20811;-56
2024/04/10 06:23:34;;;;;;;13.07;1.88;;;10.50;99.90;;;;;;11307016;26;20010;-55
2024/04/10 06:28:42;;;;;;;34.60;2.53;;;11.00;99.90;;;;;;11312413;26;20021;-55
2024/04/10 06:33:52;;;;;;;9.68;1.88;;;10.60;99.90;;;;;;11317034;26;20034;-57
2024/04/10 06:38:59;;;;;;;12.05;2.28;;;10.10;99.90;;;;;;11308769;26;20020;-54
2024/04/10 06:44:03;;;;;;;10.52;1.70;;;10.50;99.90;;;;;;11295954;26;20020;-56
2024/04/10 06:49:15;;;;;;;8.15;1.83;;;10.30;99.90;;;;;;11303679;26;20149;-57
2024/04/10 06:54:21;;;;;;;13.20;2.03;;;10.70;99.90;;;;;;11308257;26;20051;-54
2024/04/10 06:59:25;;;;;;;12.15;1.85;;;10.30;99.90;;;;;;11305977;26;23162;-58
2024/04/10 07:04:32;;;;;;;10.35;1.13;;;10.30;99.90;;;;;;11318208;26;20020;-57
2024/04/10 07:09:36;;;;;;;14.15;1.85;;;10.50;99.90;;;;;;11314958;26;20006;-56
2024/04/10 07:14:42;;;;;;;13.80;2.42;;;10.70;99.90;;;;;;11314109;26;20768;-53
2024/04/10 07:19:55;;;;;;;8.82;1.75;;;11.00;99.90;;;;;;11318688;26;20079;-53
2024/04/10 07:24:59;;;;;;;10.50;1.73;;;11.10;99.90;;;;;;11322799;26;20020;-54
2024/04/10 07:30:08;;;;;;;6.88;1.35;;;10.80;99.90;;;;;;11320933;26;20017;-53
2024/04/10 07:35:14;;;;;;;10.02;1.63;;;11.40;99.90;;;;;;11314933;26;20036;-52
2024/04/10 07:40:19;;;;;;;7.68;1.15;;;11.20;99.90;;;;;;11307927;26;20005;-53
2024/04/10 07:45:25;;;;;;;6.82;1.33;;;11.10;99.90;;;;;;11313681;26;20097;-52
2024/04/10 07:50:32;;;;;;;12.23;2.22;;;11.30;99.90;;;;;;11316329;26;20006;-56
2024/04/10 07:55:38;;;;;;;8.25;2.25;;;11.70;99.90;;;;;;11306967;26;20090;-56
2024/04/10 08:00:45;;;;;;;7.40;1.70;;;11.60;99.90;;;;;;11308643;26;20437;-56
2024/04/10 08:05:55;;;;;;;12.60;1.65;;;11.40;99.90;;;;;;11307446;26;20016;-54
2024/04/10 08:11:02;;;;;;;12.32;1.55;;;11.00;99.90;;;;;;11311495;26;20025;-54
2024/04/10 08:16:10;;;;;;;10.95;1.98;;;11.40;99.90;;;;;;11312660;26;20441;-56
2024/04/10 08:21:18;;;;;;;12.55;1.42;;;10.90;99.90;;;;;;11316956;25;20985;-55
2024/04/10 08:26:24;;;;;;;4.13;0.90;;;10.80;99.90;;;;;;11321508;26;20085;-55
2024/04/10 08:31:35;;;;;;;15.82;1.90;;;11.20;99.90;;;;;;11324993;26;20028;-53
2024/04/10 08:36:45;;;;;;;16.02;3.63;;;11.40;99.90;;;;;;11325348;26;20089;-54
2024/04/10 08:42:01;;;;;;;11.40;1.67;;;11.30;99.90;;;;;;11318302;26;20083;-53
2024/04/10 08:47:08;;;;;;;9.73;0.95;;;11.30;99.90;;;;;;11332763;26;20817;-53
2024/04/10 08:52:18;;;;;;;13.48;1.40;;;11.60;99.90;;;;;;11309470;26;20021;-54
2024/04/10 08:57:22;;;;;;;8.73;1.33;;;11.70;99.90;;;;;;11313033;26;20006;-56
2024/04/10 09:02:26;;;;;;;11.02;1.75;;;12.20;99.90;;;;;;11309396;26;20147;-54
2024/04/10 09:07:36;;;;;;;9.55;2.20;;;11.40;99.90;;;;;;11312554;26;20040;-51
2024/04/10 09:12:43;;;;;;;6.45;1.10;;;11.50;99.90;;;;;;11310879;26;20036;-55
2024/04/10 09:17:51;;;;;;;10.27;1.58;;;12.10;99.90;;;;;;11316843;26;20005;-56
2024/04/10 09:23:05;;;;;;;7.75;1.20;;;12.10;99.90;;;;;;11307735;26;20006;-57
2024/04/10 09:28:11;;;;;;;8.10;1.67;;;11.60;99.90;;;;;;11308100;26;21063;-58
2024/04/10 09:33:20;;;;;;;8.95;1.20;;;11.90;99.90;;;;;;11312124;26;20017;-55
2024/04/10 09:38:28;;;;;;;7.97;0.88;;;;;;;;;;11312355;26;20017;-55
2024/04/10 09:43:33;;;;;;;1.80;0.57;;;12.00;99.90;;;;;;11321592;26;20027;-57
2024/04/10 09:48:40;;;;;;;11.43;2.03;;;12.20;99.90;;;;;;11318637;25;20006;-53
2024/04/10 09:53:47;;;;;;;9.38;1.60;;;12.00;99.90;;;;;;11316099;26;20005;-56
2024/04/10 09:58:52;;;;;;;8.18;1.45;;;12.20;99.90;;;;;;11316437;26;20001;-55
2024/04/10 10:03:59;;;;;;;10.38;2.08;;;11.90;99.90;;;;;;11318014;26;20024;-57
2024/04/10 10:09:09;;;;;;;6.95;1.20;;;12.20;99.90;;;;;;11313023;26;21038;-56
2024/04/10 10:14:19;;;;;;;5.25;0.90;;;12.80;99.90;;;;;;11316138;26;21152;-56
2024/04/10 10:19:43;;;;;;;8.30;2.15;;;12.60;99.90;;;;;;11313630;26;20639;-56
2024/04/10 10:24:59;;;;;;;15.25;1.75;;;12.40;99.90;;;;;;11309828;26;20018;-54
2024/04/10 10:30:07;;;;;;;6.07;1.25;;;12.60;99.90;;;;;;11311218;26;20020;-56
2024/04/10 10:35:16;;;;;;;7.65;1.20;;;12.50;99.90;;;;;;11316101;26;20010;-57
2024/04/10 10:40:23;;;;;;;9.65;1.13;;;12.60;99.90;;;;;;11308336;26;20086;-54
2024/04/10 10:45:28;;;;;;;8.13;1.27;;;13.00;99.90;;;;;;11306406;26;20108;-55
2024/04/10 10:50:35;;;;;;;2.88;0.80;;;12.90;99.90;;;;;;11307777;26;20018;-53
2024/04/10 10:55:55;;;;;;;11.73;1.20;;;12.90;99.90;;;;;;11311137;26;20382;-57
2024/04/10 11:01:09;;;;;;;6.43;0.85;;;13.30;99.90;;;;;;11310563;26;23165;-55
2024/04/10 11:06:14;;;;;;;;;;;13.00;99.90;;;;;;11313704;26;20865;-55
2024/04/10 11:11:21;;;;;;;13.93;1.20;;;13.10;99.90;;;;;;11320376;26;19947;-56
2024/04/10 11:16:31;;;;;;;7.25;0.90;;;13.30;99.90;;;;;;11315334;26;20041;-59
2024/04/10 11:21:38;;;;;;;7.35;1.30;;;13.00;99.90;;;;;;11324553;25;20009;-55
2024/04/10 11:26:48;;;;;;;11.82;1.40;;;13.20;99.90;;;;;;11312442;26;20006;-53
2024/04/10 11:31:58;;;;;;;5.35;0.80;;;13.00;99.90;;;;;;11320896;26;20017;-56
2024/04/10 11:37:02;;;;;;;7.65;2.00;;;13.20;99.80;;;;;;11317782;26;20013;-59
2024/04/10 11:42:09;;;;;;;7.15;1.20;;;13.10;99.80;;;;;;11306273;26;20846;-57
2024/04/10 11:47:13;;;;;;;4.95;1.20;;;13.20;99.90;;;;;;11311356;26;20626;-55
2024/04/10 11:52:20;;;;;;;6.88;0.90;;;13.80;98.50;;;;;;11308127;26;20037;-56
2024/04/10 11:57:30;;;;;;;3.28;0.63;;;13.80;98.30;;;;;;11308467;26;20006;-55
2024/04/10 12:02:38;;;;;;;6.88;1.10;;;14.30;99.90;;;;;;11310210;26;20475;-53
2024/04/10 12:07:43;;;;;;;3.83;0.75;;;14.40;97.70;;;;;;11310351;26;20066;-55
2024/04/10 12:12:54;;;;;;;4.40;0.82;;;14.70;96.60;;;;;;11317353;26;20070;-55
2024/04/10 12:17:59;;;;;;;6.20;1.30;;;14.40;98.00;;;;;;11319143;26;20060;-52
2024/04/10 12:23:03;;;;;;;3.10;0.73;;;14.30;95.60;;;;;;11316786;26;20642;-52
2024/04/10 12:28:13;;;;;;;3.83;0.80;;;14.70;99.90;;;;;;11314596;26;20599;-51
2024/04/10 12:33:25;;;;;;;6.05;1.10;;;15.00;93.00;;;;;;11320005;26;20015;-55
2024/04/10 12:38:35;;;;;;;7.40;0.90;;;15.40;92.60;;;;;;11316877;26;20350;-54
2024/04/10 12:43:51;;;;;;;18.65;9.15;;;15.20;92.10;;;;;;11310484;26;20013;-53
2024/04/10 12:48:56;;;;;;;3.58;0.85;;;15.50;91.70;;;;;;11313155;26;20813;-55
2024/04/10 12:54:06;;;;;;;3.25;0.50;;;15.70;88.40;;;;;;11311965;26;20020;-52
2024/04/10 12:59:14;;;;;;;2.63;0.75;;;16.20;94.60;;;;;;11309394;26;20524;-58
2024/04/10 13:04:26;;;;;;;5.63;0.70;;;16.80;90.10;;;;;;11305957;26;20076;-55
2024/04/10 13:09:32;;;;;;;4.90;0.90;;;16.50;91.30;;;;;;11312625;26;20006;-55
2024/04/10 13:14:38;;;;;;;7.82;0.95;;;16.50;97.70;;;;;;11315604;26;20002;-53
2024/04/10 13:19:48;;;;;;;5.72;0.90;;;16.60;96.20;;;;;;11312783;26;20014;-57
2024/04/10 13:24:55;;;;;;;4.18;0.75;;;16.90;90.40;;;;;;11318276;26;20045;-53
2024/04/10 13:30:05;;;;;;;4.13;0.85;;;17.20;89.40;;;;;;11313942;26;20013;-56
2024/04/10 13:35:11;;;;;;;6.18;0.90;;;17.70;90.80;;;;;;11315968;26;20053;-56
2024/04/10 13:40:18;;;;;;;3.00;0.73;;;17.80;90.00;;;;;;11315498;26;20017;-55
2024/04/10 13:45:27;;;;;;;4.18;0.98;;;18.10;86.30;;;;;;11322018;25;20021;-54
2024/04/10 13:50:38;;;;;;;3.65;0.80;;;17.90;78.50;;;;;;11310590;26;20034;-56
2024/04/10 13:55:43;;;;;;;7.60;1.92;;;18.20;88.10;;;;;;11317648;26;20016;-57
2024/04/10 14:00:51;;;;;;;6.20;0.80;;;18.30;82.60;;;;;;11314284;26;20112;-52
2024/04/10 14:06:02;;;;;;;3.00;1.00;;;18.00;80.90;;;;;;11313259;26;20081;-56
2024/04/10 14:11:11;;;;;;;4.55;0.85;;;18.30;85.90;;;;;;11313893;26;20588;-52
2024/04/10 14:16:18;;;;;;;5.22;0.85;;;18.80;81.40;;;;;;11308019;26;20013;-56
2024/04/10 14:21:25;;;;;;;7.90;0.90;;;19.00;83.60;;;;;;11297893;26;20006;-55
2024/04/10 14:26:30;;;;;;;3.97;1.10;;;19.40;90.70;;;;;;11304721;26;20032;-56
2024/04/10 14:31:41;;;;;;;3.50;0.65;;;;;;;;;;11303774;26;20736;-53
2024/04/10 14:36:45;;;;;;;4.78;1.00;;;;;;;;;;11304090;26;20002;-54
2024/04/10 14:41:50;;;;;;;4.30;0.80;;;19.90;78.10;;;;;;11303644;26;21419;-56
2024/04/10 14:46:59;;;;;;;4.82;1.20;;;19.80;99.70;;;;;;11310265;26;20005;-56
2024/04/10 14:52:04;;;;;;;6.95;1.08;;;20.40;77.40;;;;;;11314307;26;20002;-53
2024/04/10 14:57:12;;;;;;;2.97;0.80;;;21.70;95.00;;;;;;11308847;26;20839;-55
2024/04/10 15:02:24;;;;;;;5.45;1.25;;;22.10;91.80;;;;;;11309840;26;20890;-55
2024/04/10 15:07:28;;;;;;;6.20;1.13;;;21.50;81.00;;;;;;11315377;26;20101;-54
2024/04/10 15:12:33;;;;;;;10.18;1.98;;;22.20;81.10;;;;;;11313185;26;20424;-54
2024/04/10 15:17:41;;;;;;;6.88;1.20;;;22.10;79.30;;;;;;11310262;26;20081;-57
2024/04/10 15:22:46;;;;;;;12.80;1.75;;;22.30;76.60;;;;;;11302425;26;20014;-50
2024/04/10 15:27:54;;;;;;;6.88;1.33;;;22.30;78.60;;;;;;11305055;26;20003;-56
2024/04/10 15:33:03;;;;;;;8.90;1.70;;;21.90;83.90;;;;;;11302001;26;20002;-55
2024/04/10 15:38:08;;;;;;;12.13;1.88;;;22.00;78.70;;;;;;11297822;26;20117;-55
2024/04/10 15:43:14;;;;;;;11.38;1.92;;;22.30;82.40;;;;;;11303967;26;21091;-54
2024/04/10 15:48:22;;;;;;;9.40;1.92;;;23.50;86.70;;;;;;11302623;26;20022;-56
2024/04/10 15:55:08;;;;;;;13.85;1.80;;;23.70;87.80;;;;;;11477698;25;20457;-55
2024/04/10 16:00:14;;;;;;;14.70;1.83;;;23.40;93.00;;;;;;11481005;25;20101;-56
2024/04/10 16:05:27;;;;;;;11.02;1.83;;;22.60;84.50;;;;;;11471900;25;20009;-57
2024/04/10 16:10:38;;;;;;;11.48;1.58;;;21.80;96.60;;;;;;11475900;25;20543;-54
2024/04/10 16:15:43;;;;;;;11.07;2.25;;;21.10;99.90;;;;;;11479384;25;23489;-56
2024/04/10 16:20:49;;;;;;;8.90;1.45;;;20.90;91.60;;;;;;11470121;25;20008;-56
2024/04/10 16:31:21;;;;;;;8.55;1.52;;;20.40;95.20;;;;;;11464884;25;20004;-61
2024/04/10 16:36:29;;;;;;;8.48;1.75;;;20.10;99.90;;;;;;11470950;25;20467;-55
2024/04/10 16:41:40;;;;;;;11.05;1.55;;;20.70;99.90;;;;;;11470379;25;20004;-53
2024/04/10 16:46:45;;;;;;;10.18;1.85;;;20.90;99.90;;;;;;11474640;25;20016;-54
2024/04/10 16:51:51;;;;;;;14.70;2.17;;;19.60;95.50;;;;;;11466302;25;20045;-55
2024/04/10 16:56:58;;;;;;;15.75;2.10;;;18.80;99.70;;;;;;11470331;25;20542;-56
2024/04/10 17:02:02;;;;;;;9.65;1.48;;;19.20;99.20;;;;;;11467205;25;20033;-53
2024/04/10 17:07:07;;;;;;;10.57;1.52;;;18.90;99.90;;;;;;11451121;25;20752;-54
2024/04/10 17:12:16;;;;;;;11.35;1.52;;;18.50;99.90;;;;;;11451415;25;20552;-55
2024/04/10 17:17:23;;;;;;;12.00;1.85;;;18.80;99.90;;;;;;11457534;25;20827;-59
2024/04/10 17:22:28;;;;;;;21.88;2.95;;;17.10;99.90;;;;;;11457590;25;20004;-57
2024/04/10 17:27:41;;;;;;;17.90;2.65;;;16.90;99.90;;;;;;11451287;25;20234;-58
2024/04/10 17:32:45;;;;;;;14.77;2.22;;;16.90;99.90;;;;;;11442153;25;20570;-58
2024/04/10 17:37:54;;;;;;;16.10;2.38;;;16.70;99.90;;;;;;11443741;25;20041;-58
2024/04/10 17:43:01;;;;;;;20.45;2.55;;;16.80;99.90;;;;;;11439382;25;20015;-60
2024/04/10 17:48:06;;;;;;;17.20;2.63;;;;;;;;;;11432843;25;20684;-57
2024/04/10 17:53:11;;;;;;;17.63;2.45;;;17.20;99.90;;;;;;11439636;25;20045;-58
2024/04/10 17:58:19;;;;;;;15.68;3.00;;;17.00;99.90;;;;;;11439688;25;20104;-58
2024/04/10 18:03:24;;;;;;;10.23;2.35;;;15.90;99.90;;;;;;11431940;25;20022;-56
2024/04/10 18:08:28;;;;;;;16.73;2.67;;;;;;;;;;11433218;25;20013;-57
2024/04/10 18:13:38;;;;;;;12.48;2.50;;;;;;;;;;11438536;25;20001;-57
2024/04/10 18:18:42;;;;;;;6.20;1.85;;;;;;;;;;11437303;25;20020;-54
2024/04/10 18:23:46;;;;;;;8.88;1.67;;;15.40;99.90;;;;;;11436560;25;20149;-57
2024/04/10 18:28:55;;;;;;;9.25;2.15;;;17.80;99.90;;;;;;11438222;25;20009;-56
2024/04/10 18:34:00;;;;;;;11.77;2.45;;;20.50;99.90;;;;;;11437455;25;20053;-60
2024/04/10 18:39:10;;;;;;;9.00;2.05;;;21.20;99.90;;;;;;11432297;25;20380;-60
2024/04/10 18:44:17;;;;;;;13.35;1.83;;;20.00;99.90;;;;;;11438760;25;20044;-59
2024/04/10 18:49:24;;;;;;;16.17;2.15;;;17.50;99.90;;;;;;11432767;25;20013;-59
2024/04/10 18:54:31;;;;;;;16.88;2.00;;;17.40;99.90;;;;;;11445101;25;20001;-59
2024/04/10 18:59:43;;;;;;;13.95;2.38;;;17.80;99.90;;;;;;11433613;25;20004;-61
2024/04/10 19:04:48;;;;;;;;;;;17.10;99.90;;;;;;11438680;25;20015;-59
2024/04/10 19:09:52;;;;;;;11.75;1.85;;;16.30;99.90;;;;;;11432863;25;19931;-59
2024/04/10 19:15:04;;;;;;;12.32;2.78;;;15.60;99.90;;;;;;11434923;25;20013;-60
2024/04/10 19:20:17;;;;;;;13.60;2.13;;;15.80;99.90;;;;;;11439557;25;20015;-60
2024/04/10 19:25:31;;;;;;;10.05;2.05;;;17.70;99.90;;;;;;11435257;25;22818;-59
2024/04/10 19:30:42;;;;;;;11.23;2.05;;;17.90;99.90;;;;;;11434837;25;20037;-60
2024/04/10 19:35:50;;;;;;;11.15;1.67;;;16.00;99.90;;;;;;11438284;25;20074;-61
2024/04/10 19:41:08;;;;;;;10.32;1.45;;;17.10;99.90;;;;;;11439967;25;20084;-58
2024/04/10 19:46:17;;;;;;;8.07;1.73;;;16.60;99.90;;;;;;11435417;25;20005;-59
2024/04/10 19:51:27;;;;;;;12.07;1.40;;;17.30;99.90;;;;;;11433012;25;20015;-60
2024/04/10 19:56:32;;;;;;;8.55;1.52;;;16.10;99.90;;;;;;11437268;25;20016;-60
2024/04/10 20:01:49;;;;;;;14.30;1.90;;;16.80;99.90;;;;;;11443716;25;20063;-58
2024/04/10 20:06:54;;;;;;;13.50;1.90;;;15.30;99.90;;;;;;11460956;25;20791;-60
2024/04/10 20:11:58;;;;;;;18.25;2.28;;;16.10;99.90;;;;;;11474049;25;20779;-59
2024/04/10 20:17:09;;;;;;;11.45;2.03;;;17.10;99.90;;;;;;11460876;25;20014;-59
2024/04/10 20:22:15;;;;;;;10.23;1.80;;;18.70;99.90;;;;;;11456389;25;20004;-59
2024/04/10 20:27:25;;;;;;;10.98;1.48;;;18.60;99.90;;;;;;11447519;25;20344;-59
2024/04/10 20:32:37;;;;;;;11.30;2.10;;;19.00;99.90;;;;;;11454098;25;20009;-60
2024/04/10 20:37:43;;;;;;;8.57;2.10;;;19.50;99.90;;;;;;11464820;25;20014;-59
2024/04/10 20:42:49;;;;;;;9.75;1.88;;;19.90;99.90;;;;;;11477757;25;20100;-59
2024/04/10 20:47:56;;;;;;;12.20;2.38;;;20.10;99.90;;;;;;11479104;25;20082;-60
2024/04/10 20:53:01;;;;;;;10.05;3.38;;;19.60;99.90;;;;;;11478181;25;20024;-58
2024/04/10 20:58:05;;;;;;;13.30;1.88;;;;;;;;;;11483544;25;20054;-58
2024/04/10 21:03:12;;;;;;;13.07;1.95;;;;;;;;;;11479319;25;20079;-59
2024/04/10 22:12:35;;;;;;;10.07;1.50;;;17.80;99.90;;;;;;11484705;25;20029;-59
2024/04/10 22:28:26;;;;;;;8.05;1.75;;;17.00;99.90;;;;;;11490224;25;20004;-58
2024/04/10 22:33:37;;;;;;;10.90;2.30;;;;;;;;;;11478581;25;20005;-61
2024/04/10 22:38:46;;;;;;;4.63;1.40;;;17.50;99.90;;;;;;11477777;25;20004;-58
2024/04/10 22:43:52;;;;;;;11.75;1.83;;;17.00;99.90;;;;;;11485048;25;20009;-58
2024/04/10 22:48:56;;;;;;;10.35;1.48;;;17.10;99.90;;;;;;11488461;25;20364;-59
2024/04/10 22:54:05;;;;;;;6.72;1.35;;;15.70;99.90;;;;;;11490816;25;20012;-57
2024/04/10 22:59:12;;;;;;;10.50;1.70;;;15.80;99.90;;;;;;11487673;25;20850;-59
2024/04/10 23:04:18;;;;;;;7.55;1.50;;;16.10;99.90;;;;;;11488523;25;20038;-60
2024/04/10 23:09:30;;;;;;;8.23;1.67;;;15.70;99.90;;;;;;11484443;25;20021;-59
2024/04/10 23:14:34;;;;;;;3.40;1.50;;;16.10;99.90;;;;;;11485891;25;21170;-58
2024/04/10 23:19:38;;;;;;;3.00;0.90;;;14.90;99.90;;;;;;11478967;25;20012;-60
2024/04/10 23:24:45;;;;;;;9.02;1.70;;;15.80;99.90;;;;;;11484865;25;20012;-58
2024/04/10 23:29:58;;;;;;;8.48;2.08;;;15.40;99.90;;;;;;11480042;25;20048;-57
2024/04/10 23:35:02;;;;;;;14.57;1.95;;;14.40;99.90;;;;;;11478200;25;20069;-57
2024/04/10 23:40:11;;;;;;;8.93;1.70;;;14.10;99.90;;;;;;11473359;25;20139;-58
2024/04/10 23:45:17;;;;;;;6.80;2.03;;;14.20;99.90;;;;;;11476589;25;20079;-59
2024/04/10 23:50:21;;;;;;;5.93;1.60;;;14.40;99.90;;;;;;11477935;25;20019;-59
2024/04/10 23:55:30;;;;;;;7.85;1.52;;;14.60;99.90;;;;;;11480220;25;20040;-59
